»·PEaware :: SWA5814 KLAS-KSNA

SWA5814 :: KLAS-KSNA

FLIGHT INFORMATION

Flight Status: Arrived
Operator:
Southwest Airlines
More flights by this operator :: More flights under this callsign
Pilot: Michael C. (27126)
Aircraft: BOEING 737-800
(B738)
More flights by this aircraft type
Origin: KLAS McCarran Intl
United States
Destination: KSNA John Wayne-Orange Co
United States
More flights between these airports :: More routes between these airports
Route: BOACH8 WHIGG FEYLA DSNEE4
File this flight plan on PilotEdge
Remarks: RMK / SIMBRIEF
Altitude:
(Current/Filed)
28,000ft
Speed:
(Current/Filed)
454kts
Departed: 21-Mar-20 06:07 PM
Arrived: 21-Mar-20 07:00 PM
Distance/Time
Traveled:
197nm/0:53
Distance/Time
To Go:
Arrived

Flight Plot

Page will automatically refresh every two minutes.

Flight plan parsing failed; only flown route is shown


Map Options




Map Legend


Flown Route
Filed Route
Departure Airport
Arrival Airport
Navaid (VOR, NDB)
Fix

Horizontal Profiles

Position Reports

Time Latitude Longitude Heading Altitude Ground
Speed
21-Mar-20 17:35 36.081653 -115.147988 61 2121ft 0kts
21-Mar-20 17:36 36.081653 -115.147988 61 2121ft 0kts
21-Mar-20 17:37 36.081653 -115.147988 61 2121ft 0kts
21-Mar-20 17:38 36.081653 -115.147988 61 2121ft 0kts
21-Mar-20 17:39 36.081653 -115.147988 61 2121ft 0kts
21-Mar-20 17:40 36.081653 -115.147988 61 2121ft 0kts
21-Mar-20 17:41 36.081652 -115.147988 61 2121ft 0kts
21-Mar-20 17:42 36.081652 -115.147988 61 2121ft 0kts
21-Mar-20 17:43 36.081652 -115.147988 61 2121ft 0kts
21-Mar-20 17:44 36.081652 -115.147988 61 2121ft 0kts
21-Mar-20 17:45 36.081652 -115.147988 61 2121ft 0kts
21-Mar-20 17:46 36.081574 -115.148257 55 2121ft 2kts
21-Mar-20 17:47 36.081489 -115.148677 129 2121ft 2kts
21-Mar-20 17:48 36.081617 -115.148777 157 2121ft 0kts
21-Mar-20 17:49 36.081617 -115.148777 157 2121ft 0kts
21-Mar-20 17:50 36.081608 -115.148772 157 2121ft 1kts
21-Mar-20 17:51 36.080375 -115.148104 155 2121ft 12kts
21-Mar-20 17:52 36.079525 -115.147616 155 2121ft 0kts
21-Mar-20 17:53 36.079525 -115.147616 155 2121ft 0kts
21-Mar-20 17:54 36.079447 -115.147573 155 2121ft 7kts
21-Mar-20 17:55 36.078384 -115.145647 80 2121ft 10kts
21-Mar-20 17:56 36.078290 -115.140979 90 2121ft 29kts
21-Mar-20 17:57 36.078283 -115.134927 89 2121ft 27kts
21-Mar-20 17:58 36.078289 -115.129252 89 2121ft 25kts
21-Mar-20 17:59 36.078310 -115.123994 90 2121ft 21kts
21-Mar-20 18:00 36.077497 -115.121493 143 2121ft 0kts
21-Mar-20 18:01 36.077497 -115.121493 143 2121ft 0kts
21-Mar-20 18:02 36.077497 -115.121493 143 2121ft 0kts
21-Mar-20 18:03 36.077497 -115.121493 143 2121ft 0kts
21-Mar-20 18:04 36.077497 -115.121493 143 2121ft 0kts
21-Mar-20 18:05 36.076839 -115.121310 193 2121ft 14kts
21-Mar-20 18:06 36.076410 -115.131545 269 2121ft 132kts
21-Mar-20 18:07 36.076083 -115.164862 267 3082ft 191kts
21-Mar-20 18:08 36.072536 -115.213271 254 4462ft 229kts
21-Mar-20 18:09 36.041087 -115.268121 211 6152ft 274kts
21-Mar-20 18:10 35.973338 -115.299530 193 7670ft 285kts
21-Mar-20 18:11 35.898286 -115.310363 186 10835ft 304kts
21-Mar-20 18:12 35.817400 -115.310772 175 13113ft 337kts
21-Mar-20 18:13 35.736887 -115.301428 178 15879ft 341kts
21-Mar-20 18:14 35.658175 -115.327541 216 18457ft 340kts
21-Mar-20 18:15 35.597233 -115.403110 227 20235ft 360kts
21-Mar-20 18:16 35.543527 -115.475943 227 21284ft 355kts
21-Mar-20 18:17 35.488340 -115.550256 228 22417ft 358kts
21-Mar-20 18:18 35.428785 -115.630599 228 23625ft 360kts
21-Mar-20 18:19 35.384380 -115.690360 228 24544ft 362kts
21-Mar-20 18:20 35.329607 -115.763912 229 25686ft 365kts
21-Mar-20 18:21 35.271938 -115.841331 230 26617ft 380kts
21-Mar-20 18:22 35.209960 -115.923689 229 27421ft 385kts
21-Mar-20 18:23 35.148656 -116.000453 230 28085ft 381kts
21-Mar-20 18:24 35.079054 -116.087964 230 28105ft 386kts
21-Mar-20 18:25 35.010883 -116.173653 230 28110ft 385kts
21-Mar-20 18:26 34.931377 -116.273417 232 28122ft 387kts
21-Mar-20 18:28 34.866181 -116.355181 233 28116ft 389kts
21-Mar-20 18:29 34.809912 -116.426750 234 28102ft 389kts
21-Mar-20 18:30 34.752512 -116.499815 234 28097ft 386kts
21-Mar-20 18:31 34.699489 -116.566246 232 27844ft 337kts
21-Mar-20 18:32 34.646066 -116.621268 227 26033ft 337kts
21-Mar-20 18:33 34.593848 -116.672206 226 24408ft 331kts
21-Mar-20 18:34 34.541468 -116.723293 225 22773ft 328kts
21-Mar-20 18:35 34.483569 -116.783443 228 20935ft 321kts
21-Mar-20 18:36 34.414572 -116.863655 227 18653ft 318kts
21-Mar-20 18:37 34.354474 -116.933402 226 16678ft 323kts
21-Mar-20 18:38 34.283508 -117.015111 224 14396ft 323kts
21-Mar-20 18:39 34.219015 -117.068499 211 12557ft 324kts
21-Mar-20 18:40 34.152615 -117.112904 204 10772ft 322kts
21-Mar-20 18:41 34.086102 -117.148276 204 9969ft 311kts
21-Mar-20 18:42 34.020473 -117.183382 205 9959ft 284kts
21-Mar-20 18:43 33.974120 -117.226952 228 9975ft 278kts
21-Mar-20 18:44 33.936367 -117.280239 229 9969ft 279kts
21-Mar-20 18:45 33.897684 -117.335005 229 9507ft 276kts
21-Mar-20 18:46 33.858083 -117.391011 229 8685ft 263kts
21-Mar-20 18:47 33.831490 -117.460227 263 7754ft 258kts
21-Mar-20 18:47 33.826331 -117.525721 263 6799ft 247kts
21-Mar-20 18:49 33.820020 -117.608419 263 5156ft 240kts
21-Mar-20 18:50 33.815336 -117.668081 263 4882ft 205kts
21-Mar-20 18:50 33.811544 -117.712001 263 4322ft 223kts
21-Mar-20 18:51 33.805346 -117.767767 251 3148ft 206kts
21-Mar-20 18:53 33.783775 -117.796819 219 2567ft 171kts
21-Mar-20 18:53 33.768514 -117.809527 212 2072ft 161kts
21-Mar-20 18:54 33.749466 -117.822718 207 1520ft 158kts
21-Mar-20 18:55 33.729802 -117.834388 206 1263ft 153kts
21-Mar-20 18:56 33.709316 -117.847410 208 703ft 150kts
21-Mar-20 18:57 33.689146 -117.860225 208 251ft 149kts
21-Mar-20 18:58 33.670558 -117.872121 210 67ft 58kts
21-Mar-20 18:59 33.667685 -117.873202 121 67ft 0kts
21-Mar-20 19:00 33.667877 -117.872240 45 67ft 18kts
21-Mar-20 19:01 33.670355 -117.869677 39 67ft 25kts
21-Mar-20 19:02 33.673157 -117.867516 24 66ft 23kts
21-Mar-20 19:03 33.674749 -117.866082 28 66ft 16kts
21-Mar-20 19:04 33.676250 -117.864911 112 66ft 0kts
21-Mar-20 19:05 33.676105 -117.864418 115 67ft 0kts
21-Mar-20 19:06 33.676105 -117.864418 115 67ft 0kts
21-Mar-20 19:07 33.676105 -117.864418 115 66ft 0kts
21-Mar-20 19:08 33.676105 -117.864418 115 66ft 0kts
21-Mar-20 19:09 33.676105 -117.864418 115 66ft 0kts
21-Mar-20 19:10 33.676105 -117.864418 115 66ft 0kts
21-Mar-20 19:11 33.676105 -117.864418 115 66ft 0kts
21-Mar-20 19:12 33.676105 -117.864418 115 66ft 0kts
21-Mar-20 19:13 33.676105 -117.864418 115 66ft 0kts

Navigation Log

Ident Type
Flight plan parsing failed, navigation log unavailable